Time;durP1;ratioP1;P1;durP2;ratioP2;P2;SDS_P1;SDS_P2;PMS_P1;PMS_P2;Temp;Humidity;BMP_temperature;BMP_pressure;BME280_temperature;BME280_humidity;BME280_pressure;Samples;Min_cycle;Max_cycle;Signal;HPM_P1;HPM_P2
2023/07/16 00:00:12;;;;;;;1.33;1.10;;;;;;;16.24;89.41;100811.91;5092416;28;20479;-89
2023/07/16 00:02:38;;;;;;;1.10;1.00;;;;;;;16.17;88.73;100813.03;5092679;28;20118;-89
2023/07/16 00:05:04;;;;;;;0.90;0.90;;;;;;;16.12;88.88;100812.38;5092318;28;20530;-89
2023/07/16 00:07:29;;;;;;;0.85;0.85;;;;;;;16.05;88.43;100819.63;5091589;28;20028;-89
2023/07/16 00:09:54;;;;;;;1.73;0.90;;;;;;;16.02;88.36;100817.97;5096198;28;20077;-89
2023/07/16 00:12:20;;;;;;;1.40;0.93;;;;;;;16.05;88.51;100828.31;5095883;28;20465;-88
2023/07/16 00:14:45;;;;;;;0.80;0.80;;;;;;;16.01;88.22;100834.59;5096518;28;20063;-88
2023/07/16 00:17:11;;;;;;;1.53;1.10;;;;;;;15.96;89.03;100825.22;5096116;28;20020;-88
2023/07/16 00:19:36;;;;;;;1.17;1.07;;;;;;;15.93;89.44;100834.00;5096029;28;20472;-89
2023/07/16 00:22:02;;;;;;;1.90;1.30;;;;;;;15.84;90.02;100831.72;5096109;28;20357;-89
2023/07/16 00:24:27;;;;;;;1.93;1.20;;;;;;;15.80;89.27;100843.22;5094977;28;20028;-88
2023/07/16 00:26:52;;;;;;;1.13;0.90;;;;;;;15.77;89.04;100836.31;5096569;28;20487;-89
2023/07/16 00:29:18;;;;;;;1.17;1.07;;;;;;;15.76;88.93;100837.25;5095651;28;20108;-89
2023/07/16 00:31:43;;;;;;;1.00;0.90;;;;;;;15.74;89.61;100829.44;5095858;28;20337;-89
2023/07/16 00:34:08;;;;;;;1.10;1.10;;;;;;;15.70;89.76;100830.50;5095867;28;20024;-88
2023/07/16 00:36:33;;;;;;;0.80;0.80;;;;;;;15.69;89.44;100825.28;5096027;28;20031;-89
2023/07/16 00:38:59;;;;;;;0.90;0.90;;;;;;;15.69;89.41;100833.16;5095722;28;20153;-89
2023/07/16 00:41:24;;;;;;;0.80;0.80;;;;;;;15.67;89.26;100846.28;5095182;28;20039;-89
2023/07/16 00:43:49;;;;;;;1.77;1.20;;;;;;;15.65;89.28;100839.41;5095814;28;20028;-88
2023/07/16 00:46:17;;;;;;;1.43;1.33;;;;;;;15.63;89.50;100833.38;5094898;28;20028;-89
2023/07/16 00:48:43;;;;;;;1.80;1.02;;;;;;;15.63;89.23;100834.22;5095862;28;20024;-89
2023/07/16 00:51:09;;;;;;;1.13;1.05;;;;;;;15.65;90.65;100837.66;5095339;28;20122;-89
2023/07/16 00:53:35;;;;;;;1.47;1.20;;;;;;;15.62;89.90;100836.91;5095314;28;20110;-89
2023/07/16 00:56:00;;;;;;;1.88;1.60;;;;;;;15.56;90.67;100836.22;5095486;28;20028;-88
2023/07/16 00:58:25;;;;;;;1.70;1.00;;;;;;;15.52;89.41;100829.41;5094637;28;20400;-88
2023/07/16 01:00:51;;;;;;;0.87;0.87;;;;;;;15.52;90.27;100831.16;5095108;28;20024;-89
2023/07/16 01:03:16;;;;;;;1.10;1.00;;;;;;;15.49;89.04;100833.88;5094849;28;20028;-89
2023/07/16 01:05:52;;;;;;;1.00;0.97;;;;;;;15.48;89.06;100832.19;5095520;28;20031;-88
2023/07/16 01:08:26;;;;;;;1.15;1.05;;;;;;;15.47;89.31;100841.78;5094850;28;20052;-89
2023/07/16 01:10:52;;;;;;;1.02;1.00;;;;;;;15.41;89.21;100842.00;5095044;28;20028;-89
2023/07/16 01:13:17;;;;;;;1.93;1.30;;;;;;;15.42;90.27;100843.72;5094754;28;20055;-88
2023/07/16 01:15:43;;;;;;;0.80;0.80;;;;;;;15.39;89.79;100839.44;5094838;28;20032;-89
2023/07/16 01:18:08;;;;;;;0.80;0.80;;;;;;;15.37;89.24;100837.78;5094550;28;20069;-88
2023/07/16 01:20:33;;;;;;;1.67;1.07;;;;;;;15.32;89.10;100824.88;5094160;28;20031;-88
2023/07/16 01:23:16;;;;;;;0.77;0.77;;;;;;;15.34;89.74;100836.13;5094181;28;20093;-88
2023/07/16 01:25:50;;;;;;;0.90;0.90;;;;;;;15.30;90.39;100834.53;5095104;28;20039;-89
2023/07/16 01:28:25;;;;;;;2.05;0.90;;;;;;;15.27;89.71;100829.41;5094172;28;20039;-88
2023/07/16 01:30:52;;;;;;;1.00;1.00;;;;;;;15.21;91.06;100820.00;5094944;28;20028;-88
2023/07/16 01:33:19;;;;;;;1.13;1.00;;;;;;;15.18;89.92;100827.13;5094286;28;20541;-88
2023/07/16 01:35:48;;;;;;;1.05;1.02;;;;;;;15.17;90.08;100828.00;5093302;28;20135;-88
2023/07/16 01:38:13;;;;;;;0.80;0.80;;;;;;;15.17;90.33;100826.28;5094086;28;20028;-88
2023/07/16 01:40:39;;;;;;;0.87;0.87;;;;;;;15.16;90.55;100827.19;5094810;28;20384;-88
2023/07/16 01:43:04;;;;;;;0.77;0.77;;;;;;;15.15;90.26;100822.84;5093738;28;20031;-88
2023/07/16 01:45:29;;;;;;;0.60;0.60;;;;;;;15.16;90.69;100818.47;5094179;28;20556;-88
2023/07/16 01:48:00;;;;;;;0.80;0.70;;;;;;;15.14;89.85;100829.81;5094411;28;20107;-88
2023/07/16 01:50:25;;;;;;;0.75;0.75;;;;;;;15.15;90.40;100838.53;5094350;28;20036;-89
2023/07/16 01:52:51;;;;;;;1.17;1.00;;;;;;;15.15;91.35;100838.53;5099606;28;20012;-88
2023/07/16 01:55:16;;;;;;;0.73;0.60;;;;;;;15.10;90.58;100833.47;5096287;28;20024;-89
2023/07/16 01:57:41;;;;;;;1.23;0.87;;;;;;;15.09;91.44;100837.00;5093624;28;20043;-88
2023/07/16 02:00:08;;;;;;;0.90;0.87;;;;;;;15.07;92.50;100828.34;5094000;28;20032;-89
2023/07/16 02:02:33;;;;;;;1.02;1.00;;;;;;;15.03;92.65;100826.72;5093992;28;20024;-89
2023/07/16 02:04:58;;;;;;;1.10;1.00;;;;;;;15.02;92.52;100826.78;5093616;28;20039;-88
2023/07/16 02:07:28;;;;;;;1.70;1.23;;;;;;;15.02;93.40;100824.19;5093740;28;20375;-89
2023/07/16 02:09:53;;;;;;;1.95;1.33;;;;;;;15.00;95.20;100829.47;5094114;28;20032;-88
2023/07/16 02:12:19;;;;;;;1.87;1.50;;;;;;;14.95;94.93;100821.78;5093149;28;20037;-88
2023/07/16 02:14:44;;;;;;;1.80;1.37;;;;;;;14.96;95.59;100818.28;5093872;28;20016;-89
2023/07/16 02:17:09;;;;;;;1.43;1.33;;;;;;;14.96;94.00;100823.50;5093289;28;20020;-88
2023/07/16 02:19:34;;;;;;;1.70;1.60;;;;;;;15.00;94.12;100831.22;5093898;28;20036;-89
2023/07/16 02:22:00;;;;;;;1.87;1.40;;;;;;;15.01;95.01;100836.41;5094066;28;20114;-89
2023/07/16 02:24:25;;;;;;;2.57;1.53;;;;;;;15.01;95.25;100830.31;5093154;28;20499;-88
2023/07/16 02:26:50;;;;;;;2.50;1.60;;;;;;;15.03;96.93;100831.13;5094083;28;20047;-88
2023/07/16 02:29:16;;;;;;;1.70;1.60;;;;;;;15.04;95.62;100835.44;5093467;28;20028;-89
2023/07/16 02:31:43;;;;;;;1.93;1.60;;;;;;;15.03;97.42;100839.78;5092549;28;20028;-89
2023/07/16 02:34:08;;;;;;;2.80;1.70;;;;;;;15.03;96.73;100854.63;5093623;28;20028;-88
2023/07/16 02:36:34;;;;;;;1.70;1.40;;;;;;;15.03;95.13;100836.34;5093949;28;20042;-89
2023/07/16 02:38:59;;;;;;;1.60;1.50;;;;;;;15.06;95.09;100849.31;5093370;28;20028;-89
2023/07/16 02:41:24;;;;;;;1.53;1.40;;;;;;;15.05;96.49;100839.75;5093481;28;20032;-89
2023/07/16 02:43:59;;;;;;;2.70;1.67;;;;;;;15.07;96.90;100851.88;5093770;28;20028;-89
2023/07/16 02:46:25;;;;;;;2.47;1.80;;;;;;;15.02;97.27;100847.69;5093746;28;20416;-89
2023/07/16 02:48:50;;;;;;;1.77;1.50;;;;;;;15.03;98.23;100852.03;5093872;28;20028;-89
2023/07/16 02:51:15;;;;;;;3.43;2.00;;;;;;;15.02;100.00;100855.53;5093425;28;20035;-89
2023/07/16 02:53:41;;;;;;;2.07;1.70;;;;;;;15.03;99.65;100852.88;5111938;28;20024;-88
2023/07/16 02:56:06;;;;;;;2.23;1.70;;;;;;;15.00;100.00;100841.66;5095055;28;20024;-86
2023/07/16 02:58:31;;;;;;;2.80;1.97;;;;;;;15.03;100.00;100845.03;5093324;28;20027;-89
2023/07/16 03:00:56;;;;;;;3.20;1.87;;;;;;;15.00;98.57;100847.75;5093347;28;20012;-89
2023/07/16 03:03:22;;;;;;;2.30;1.63;;;;;;;15.02;99.19;100864.25;5092972;28;20460;-89
2023/07/16 03:05:47;;;;;;;3.07;1.70;;;;;;;15.01;100.00;100861.66;5093400;28;20032;-89
2023/07/16 03:08:12;;;;;;;3.43;2.13;;;;;;;14.98;100.00;100860.03;5093061;28;20028;-89
2023/07/16 03:10:38;;;;;;;4.13;2.00;;;;;;;14.98;100.00;100866.09;5093477;28;20457;-90
2023/07/16 03:13:03;;;;;;;4.03;2.47;;;;;;;14.96;100.00;100870.53;5093935;28;20035;-89
2023/07/16 03:15:28;;;;;;;3.17;2.10;;;;;;;14.92;99.69;100863.69;5093195;28;20062;-90
2023/07/16 03:17:54;;;;;;;3.33;1.97;;;;;;;14.90;100.00;100870.72;5093212;28;20115;-91
2023/07/16 03:20:19;;;;;;;2.83;2.13;;;;;;;14.87;98.97;100880.44;5093195;28;20456;-90
2023/07/16 03:22:44;;;;;;;3.03;2.00;;;;;;;14.83;100.00;100874.44;5093658;28;20062;-90
2023/07/16 03:25:10;;;;;;;4.83;2.20;;;;;;;14.78;100.00;100869.38;5092930;28;20032;-90
2023/07/16 03:27:35;;;;;;;2.97;2.10;;;;;;;14.81;99.28;100878.88;5092987;28;20024;-90
2023/07/16 03:30:01;;;;;;;2.90;2.00;;;;;;;14.83;97.79;100875.28;5093443;28;20028;-91
2023/07/16 03:32:26;;;;;;;4.27;2.33;;;;;;;14.75;98.69;100874.69;5092840;28;20028;-90
2023/07/16 03:34:51;;;;;;;5.07;2.50;;;;;;;14.69;98.02;100876.66;5093356;28;20286;-89
2023/07/16 03:37:17;;;;;;;4.40;2.60;;;;;;;14.67;97.56;100881.94;5093109;28;20025;-89
2023/07/16 03:39:42;;;;;;;4.13;2.63;;;;;;;14.62;97.26;100878.56;5093006;28;20028;-89
2023/07/16 03:42:07;;;;;;;4.10;2.57;;;;;;;14.62;97.01;100886.41;5092429;28;20032;-89
2023/07/16 03:44:33;;;;;;;3.13;2.27;;;;;;;14.60;96.20;100890.81;5096344;28;20032;-88
2023/07/16 03:46:58;;;;;;;5.17;2.80;;;;;;;14.52;96.90;100893.69;5097274;28;20429;-89
2023/07/16 03:49:24;;;;;;;4.63;2.70;;;;;;;14.48;96.04;100900.72;5096502;28;20480;-90
2023/07/16 03:51:49;;;;;;;3.77;2.53;;;;;;;14.48;95.98;100897.28;5097110;28;20380;-90
2023/07/16 03:54:14;;;;;;;6.50;3.20;;;;;;;14.41;96.25;100899.22;5096941;28;20024;-89
2023/07/16 03:56:40;;;;;;;6.83;2.83;;;;;;;14.44;95.50;100906.09;5096724;28;20036;-89
2023/07/16 03:59:05;;;;;;;6.53;3.03;;;;;;;14.37;95.69;100910.66;5097084;28;20589;-89
2023/07/16 04:01:30;;;;;;;3.87;2.37;;;;;;;14.41;95.45;100914.06;5096903;28;20468;-89
2023/07/16 04:03:55;;;;;;;8.93;2.87;;;;;;;14.35;96.00;100913.31;5097043;28;20032;-88
2023/07/16 04:06:21;;;;;;;5.30;3.07;;;;;;;14.36;94.49;100922.00;5095962;28;20027;-89
2023/07/16 04:08:46;;;;;;;4.13;2.80;;;;;;;14.35;94.75;100921.16;5096616;28;20422;-90
2023/07/16 04:11:14;;;;;;;4.93;2.70;;;;;;;14.34;95.75;100916.00;5095914;28;20020;-89
2023/07/16 04:13:40;;;;;;;4.78;2.85;;;;;;;14.26;95.08;100916.22;5096204;28;20028;-90
2023/07/16 04:16:05;;;;;;;4.90;2.77;;;;;;;14.31;95.04;100934.34;5095756;28;20526;-88
2023/07/16 04:18:30;;;;;;;5.03;3.00;;;;;;;14.24;94.70;100925.84;5095713;28;20380;-89
2023/07/16 04:20:56;;;;;;;6.70;3.17;;;;;;;14.26;95.03;100944.91;5096131;28;20053;-90
2023/07/16 04:23:22;;;;;;;5.03;2.90;;;;;;;14.21;93.93;100939.84;5095930;28;20024;-89
2023/07/16 04:25:51;;;;;;;6.93;3.20;;;;;;;14.21;95.27;100944.19;5096016;28;20060;-89
2023/07/16 04:28:16;;;;;;;4.32;2.95;;;;;;;14.21;94.81;100946.78;5095591;28;20342;-88
2023/07/16 04:30:42;;;;;;;4.60;2.83;;;;;;;14.24;93.87;100954.56;5095551;28;20031;-89
2023/07/16 04:33:07;;;;;;;4.57;2.67;;;;;;;14.26;94.18;100960.59;5095228;28;20357;-87
2023/07/16 04:35:33;;;;;;;5.83;2.90;;;;;;;14.27;94.31;100961.44;5096038;28;20016;-89
2023/07/16 04:37:58;;;;;;;8.60;3.15;;;;;;;14.25;93.19;100966.72;5095966;28;20129;-89
2023/07/16 04:40:24;;;;;;;6.27;3.10;;;;;;;14.29;93.54;100970.06;5095307;28;20516;-88
2023/07/16 04:42:49;;;;;;;5.57;3.00;;;;;;;14.30;93.13;100977.00;5095053;28;20518;-87
2023/07/16 04:45:14;;;;;;;3.80;2.57;;;;;;;14.30;93.55;100977.00;5094418;28;20047;-87
2023/07/16 04:47:40;;;;;;;4.93;2.87;;;;;;;14.31;92.45;100970.91;5095569;28;20069;-88
2023/07/16 04:50:06;;;;;;;6.67;2.90;;;;;;;14.31;93.47;100979.56;5095065;28;20028;-87
2023/07/16 04:52:31;;;;;;;5.75;2.85;;;;;;;14.32;93.74;100985.66;5095008;28;20016;-88
2023/07/16 04:54:56;;;;;;;5.43;2.90;;;;;;;14.31;93.44;100978.72;5094258;28;20030;-87
2023/07/16 04:57:22;;;;;;;6.63;3.10;;;;;;;14.33;92.79;100983.00;5094964;28;20044;-88
2023/07/16 04:59:47;;;;;;;4.87;2.67;;;;;;;14.32;92.65;100976.06;5095046;28;20107;-87
2023/07/16 05:02:14;;;;;;;6.10;3.23;;;;;;;14.32;93.50;100983.88;5094811;28;20036;-87
2023/07/16 05:04:39;;;;;;;5.03;3.20;;;;;;;14.34;93.16;100992.53;5094954;28;20020;-87
2023/07/16 05:07:04;;;;;;;6.17;3.20;;;;;;;14.34;92.12;100995.16;5094776;28;20384;-89
2023/07/16 05:09:30;;;;;;;6.77;3.37;;;;;;;14.36;92.76;100989.88;5148183;22;20147;-87
2023/07/16 05:11:56;;;;;;;6.53;3.43;;;;;;;14.37;92.61;100994.19;5094989;28;20468;-88
2023/07/16 05:14:22;;;;;;;7.95;3.63;;;;;;;14.39;92.71;100989.78;5094317;28;20158;-87
2023/07/16 05:17:05;;;;;;;6.23;3.67;;;;;;;14.40;92.94;100991.50;5086748;28;20054;-87
2023/07/16 05:19:31;;;;;;;6.30;3.60;;;;;;;14.47;92.46;100990.41;5094533;28;20105;-87
2023/07/16 05:21:56;;;;;;;8.10;3.80;;;;;;;14.52;91.64;100998.16;5093980;28;20090;-87
2023/07/16 05:24:21;;;;;;;8.03;3.90;;;;;;;14.52;91.23;101000.75;5094220;28;20487;-86
2023/07/16 05:26:47;;;;;;;8.50;4.20;;;;;;;14.60;91.36;100992.66;5095132;28;20028;-87
2023/07/16 05:29:12;;;;;;;11.83;4.43;;;;;;;14.53;90.60;100999.81;5093634;28;20020;-87
2023/07/16 05:31:38;;;;;;;7.90;4.30;;;;;;;14.56;91.29;100996.28;5094279;28;20028;-87
2023/07/16 05:34:03;;;;;;;6.60;4.00;;;;;;;14.58;91.55;100990.13;5094141;28;20012;-86
2023/07/16 05:36:28;;;;;;;12.70;4.63;;;;;;;14.67;89.16;100999.47;5094108;28;20069;-88
2023/07/16 05:38:54;;;;;;;9.37;4.60;;;;;;;14.71;89.91;100997.63;5094004;28;20036;-88
2023/07/16 05:41:19;;;;;;;10.00;4.27;;;;;;;14.74;89.93;100997.53;5093263;28;20035;-87
2023/07/16 05:43:44;;;;;;;9.57;4.63;;;;;;;14.80;90.23;101008.66;5094416;28;20456;-88
2023/07/16 05:46:12;;;;;;;9.37;4.43;;;;;;;14.86;89.59;101010.19;5094332;28;20068;-88
2023/07/16 05:48:37;;;;;;;9.02;3.92;;;;;;;14.91;89.50;101002.25;5093136;28;20034;-88
2023/07/16 05:51:05;;;;;;;9.97;4.30;;;;;;;14.96;88.20;101014.28;5094568;28;20020;-88
2023/07/16 05:53:30;;;;;;;8.93;4.20;;;;;;;15.03;89.03;101021.91;5094113;28;20136;-89
2023/07/16 05:55:56;;;;;;;7.27;3.87;;;;;;;15.09;88.80;101024.31;5093637;28;20515;-89
2023/07/16 05:58:21;;;;;;;9.20;4.30;;;;;;;15.10;87.79;101020.81;5093828;28;20115;-87
2023/07/16 06:00:46;;;;;;;7.13;4.00;;;;;;;15.17;88.87;101024.94;5094128;28;20024;-86
2023/07/16 06:03:16;;;;;;;7.90;4.17;;;;;;;15.22;88.65;101023.03;5093373;28;20059;-88
2023/07/16 06:05:42;;;;;;;8.65;4.55;;;;;;;15.25;86.35;101028.16;5093204;28;20020;-87
2023/07/16 06:08:07;;;;;;;8.02;4.25;;;;;;;15.33;87.58;101027.94;5093442;28;20365;-88
2023/07/16 06:10:34;;;;;;;8.27;4.07;;;;;;;15.40;87.83;101031.19;5093498;28;20020;-88
2023/07/16 06:12:59;;;;;;;10.07;4.43;;;;;;;15.45;86.32;101034.50;5093602;28;20024;-87
2023/07/16 06:15:25;;;;;;;8.37;4.20;;;;;;;15.47;86.24;101027.47;5093474;28;20377;-88
2023/07/16 06:17:50;;;;;;;10.90;4.53;;;;;;;15.60;84.96;101036.63;5076574;28;20031;-87
2023/07/16 06:20:15;;;;;;;10.60;4.67;;;;;;;16.30;84.72;101033.41;5072968;28;20020;-87
2023/07/16 06:22:41;;;;;;;8.03;4.60;;;;;;;17.12;80.81;101028.56;5083841;28;20024;-88
2023/07/16 06:25:07;;;;;;;10.27;4.80;;;;;;;17.65;79.17;101036.06;5092546;28;20032;-86
2023/07/16 06:27:32;;;;;;;12.65;5.00;;;;;;;17.87;76.26;101025.53;5093221;28;20023;-88
2023/07/16 06:29:57;;;;;;;10.90;4.73;;;;;;;18.31;77.90;101037.66;5093260;28;20032;-87
2023/07/16 06:32:23;;;;;;;10.50;4.70;;;;;;;18.75;71.07;101045.28;5092380;28;20024;-86
2023/07/16 06:34:48;;;;;;;12.10;5.13;;;;;;;18.79;71.07;101057.38;5098641;22;20132;-87
2023/07/16 06:37:13;;;;;;;8.73;4.43;;;;;;;18.88;71.24;101063.09;5081299;28;20182;-84
2023/07/16 06:39:39;;;;;;;9.43;4.80;;;;;;;19.01;69.99;101060.81;5072804;28;20115;-84
2023/07/16 06:42:07;;;;;;;8.97;4.83;;;;;;;19.12;71.37;101048.84;5072284;28;20495;-85
2023/07/16 06:44:32;;;;;;;11.70;4.68;;;;;;;19.37;71.48;101042.38;5072492;28;20016;-87
2023/07/16 06:46:58;;;;;;;10.33;4.60;;;;;;;19.80;68.69;101070.13;5073883;28;20409;-91
2023/07/16 06:49:23;;;;;;;10.53;4.60;;;;;;;19.98;68.02;101057.84;5073046;28;20548;-89
2023/07/16 06:51:48;;;;;;;8.63;4.30;;;;;;;20.16;67.26;101071.84;5073557;28;20443;-90
2023/07/16 06:54:14;;;;;;;12.03;5.30;;;;;;;20.20;63.95;101063.69;5072659;28;20025;-84
2023/07/16 06:56:39;;;;;;;10.13;4.80;;;;;;;20.21;66.40;101068.03;5072603;28;20098;-86
2023/07/16 06:59:04;;;;;;;10.77;5.10;;;;;;;20.15;63.84;101078.03;5071862;28;20428;-84
2023/07/16 07:01:30;;;;;;;8.77;4.70;;;;;;;20.04;65.86;101073.34;5072213;28;20497;-85
2023/07/16 07:03:55;;;;;;;9.83;4.80;;;;;;;20.04;65.42;101084.72;5072842;28;20376;-84
2023/07/16 07:06:21;;;;;;;8.70;4.97;;;;;;;19.94;64.73;101074.72;5072655;28;20027;-83
2023/07/16 07:08:47;;;;;;;10.20;4.90;;;;;;;19.90;64.77;101087.19;5072106;28;20468;-84
2023/07/16 07:11:12;;;;;;;8.63;4.30;;;;;;;19.85;65.77;101089.19;5072059;28;20123;-83
2023/07/16 07:13:38;;;;;;;12.80;5.27;;;;;;;19.78;65.64;101100.94;5072102;28;20029;-85
2023/07/16 07:16:03;;;;;;;11.90;5.17;;;;;;;19.81;62.12;101103.44;5072282;28;20435;-83
2023/07/16 07:18:29;;;;;;;11.83;5.00;;;;;;;19.85;66.34;101112.91;5073868;28;20440;-81
2023/07/16 07:20:54;;;;;;;9.17;4.77;;;;;;;19.89;66.79;101093.38;5076160;28;20036;-84
2023/07/16 07:23:19;;;;;;;8.13;4.53;;;;;;;19.99;66.05;101096.41;5076629;28;20033;-83
2023/07/16 07:26:11;;;;;;;9.93;4.77;;;;;;;19.93;66.38;101102.84;5086049;28;20024;-84
2023/07/16 07:28:37;;;;;;;11.25;5.53;;;;;;;19.83;64.31;101099.78;5083302;28;20115;-82
2023/07/16 07:31:02;;;;;;;11.50;4.97;;;;;;;19.68;63.18;101111.09;5075664;28;20059;-82
2023/07/16 07:33:27;;;;;;;10.27;5.10;;;;;;;19.61;66.83;101107.91;5085001;28;20099;-85
2023/07/16 07:35:54;;;;;;;9.93;5.20;;;;;;;19.71;67.13;101117.06;5095766;28;20055;-84
2023/07/16 07:38:20;;;;;;;9.77;4.60;;;;;;;19.86;67.30;101107.56;5096085;28;20028;-83
2023/07/16 07:40:45;;;;;;;9.97;4.93;;;;;;;19.90;65.31;101106.50;5096015;28;20157;-83
2023/07/16 07:43:10;;;;;;;9.67;4.90;;;;;;;19.97;64.51;101104.41;5095684;28;20035;-83
2023/07/16 07:45:36;;;;;;;11.27;5.07;;;;;;;20.09;64.88;101102.91;5096237;28;20023;-83
2023/07/16 07:48:01;;;;;;;10.27;5.00;;;;;;;20.13;65.88;101112.38;5095673;28;20094;-84
2023/07/16 07:50:26;;;;;;;8.43;4.50;;;;;;;20.29;66.84;101120.34;5095877;28;20028;-83
2023/07/16 07:52:51;;;;;;;7.90;4.33;;;;;;;20.40;65.86;101111.84;5096443;28;20034;-84
2023/07/16 07:55:17;;;;;;;7.77;4.17;;;;;;;20.48;66.11;101116.72;5095335;28;20020;-83
2023/07/16 07:57:42;;;;;;;6.83;4.20;;;;;;;20.59;65.86;101111.75;5093944;28;20363;-83
2023/07/16 08:00:11;;;;;;;7.50;4.07;;;;;;;20.71;65.11;101114.66;5085956;28;20033;-88
2023/07/16 08:02:36;;;;;;;9.35;4.60;;;;;;;20.71;63.93;101112.88;5075222;28;20048;-86
2023/07/16 08:05:04;;;;;;;8.13;4.30;;;;;;;20.72;65.33;101104.00;5075786;28;20056;-88
2023/07/16 08:07:30;;;;;;;10.18;4.57;;;;;;;20.83;62.69;101112.22;5075824;28;20119;-86
2023/07/16 08:09:55;;;;;;;8.87;4.30;;;;;;;20.82;64.66;101112.31;5075684;28;20064;-87
2023/07/16 08:12:20;;;;;;;7.63;4.07;;;;;;;20.90;64.21;101125.94;5075087;28;20511;-86
2023/07/16 08:14:45;;;;;;;8.23;4.33;;;;;;;20.88;63.82;101111.13;5075408;28;20024;-85
2023/07/16 08:17:11;;;;;;;7.43;4.00;;;;;;;20.97;63.40;101121.19;5074844;28;20469;-86
2023/07/16 08:19:39;;;;;;;9.67;4.37;;;;;;;20.99;63.18;101119.31;5075379;28;20021;-85
2023/07/16 08:22:04;;;;;;;10.75;4.68;;;;;;;21.05;61.05;101124.28;5075083;28;20432;-87
2023/07/16 08:24:30;;;;;;;9.00;4.40;;;;;;;21.07;61.51;101122.38;5074989;28;20032;-85
2023/07/16 08:26:58;;;;;;;8.67;4.17;;;;;;;21.17;63.04;101129.81;5075385;28;20492;-89
2023/07/16 08:29:23;;;;;;;8.48;4.18;;;;;;;21.29;61.58;101123.81;5074921;28;20038;-85
2023/07/16 08:31:49;;;;;;;8.83;4.30;;;;;;;21.38;60.16;101135.66;5074909;28;20517;-85
2023/07/16 08:34:29;;;;;;;10.73;4.63;;;;;;;21.41;59.78;101132.84;5074691;28;20033;-86
2023/07/16 08:36:54;;;;;;;8.40;4.28;;;;;;;21.37;60.47;101123.38;5074841;28;20020;-86
2023/07/16 08:39:20;;;;;;;9.43;4.40;;;;;;;21.45;61.71;101124.66;5074259;28;20028;-87
2023/07/16 08:41:46;;;;;;;8.07;3.90;;;;;;;21.59;60.99;101130.97;5075074;28;20419;-87
2023/07/16 08:44:12;;;;;;;8.07;4.10;;;;;;;21.77;59.14;101136.13;5074178;28;20031;-86
2023/07/16 08:46:39;;;;;;;9.95;4.13;;;;;;;21.75;60.31;101133.59;5074957;28;20017;-86
2023/07/16 08:49:07;;;;;;;6.63;3.53;;;;;;;21.72;60.80;101137.25;5083848;28;20032;-87
2023/07/16 08:51:34;;;;;;;8.13;4.10;;;;;;;21.53;60.16;101139.22;5085518;28;20074;-87
2023/07/16 08:54:00;;;;;;;7.93;3.85;;;;;;;21.41;58.28;101133.69;5094968;28;20023;-86
2023/07/16 08:56:26;;;;;;;8.18;4.22;;;;;;;21.46;60.94;101138.69;5094392;28;20329;-90
2023/07/16 08:58:55;;;;;;;8.65;4.00;;;;;;;21.66;60.65;101129.69;5094545;28;20035;-87
2023/07/16 09:01:20;;;;;;;7.13;3.70;;;;;;;21.82;58.64;101137.56;5094688;28;20531;-85
2023/07/16 09:03:46;;;;;;;10.80;4.23;;;;;;;21.56;58.70;101147.78;5094857;28;20119;-88
2023/07/16 09:06:11;;;;;;;7.10;3.90;;;;;;;21.50;59.80;101147.31;5094206;28;20098;-88
2023/07/16 09:08:37;;;;;;;6.50;3.70;;;;;;;21.49;57.57;101157.03;5094646;28;20460;-86
2023/07/16 09:11:02;;;;;;;6.93;3.70;;;;;;;21.56;60.01;101158.34;5095029;28;20102;-85
2023/07/16 09:13:29;;;;;;;7.07;3.77;;;;;;;21.72;59.63;101161.03;5093692;28;20031;-85
2023/07/16 09:18:24;;;;;;;5.25;3.45;;;;;;;21.74;57.81;101161.78;5085491;28;20052;-86
2023/07/16 09:20:57;;;;;;;5.90;3.20;;;;;;;21.63;59.64;101155.41;5094463;28;20025;-85
2023/07/16 09:23:27;;;;;;;6.25;3.40;;;;;;;21.60;58.29;101159.09;5094139;28;20032;-86
2023/07/16 09:25:53;;;;;;;6.68;3.55;;;;;;;21.58;58.51;101159.13;5094782;28;20024;-86
2023/07/16 09:28:19;;;;;;;9.23;3.70;;;;;;;21.60;58.83;101172.31;5087336;28;20024;-87
2023/07/16 09:30:45;;;;;;;9.45;4.20;;;;;;;21.51;57.58;101164.84;5084361;28;20020;-88
2023/07/16 09:33:13;;;;;;;7.57;3.85;;;;;;;21.70;58.11;101164.69;5081727;28;20012;-87
2023/07/16 09:35:39;;;;;;;5.05;3.40;;;;;;;21.87;59.51;101158.44;5084901;28;20016;-85
2023/07/16 09:38:05;;;;;;;9.43;4.00;;;;;;;21.82;57.74;101161.34;5082667;28;20089;-85
2023/07/16 09:40:31;;;;;;;5.97;3.45;;;;;;;21.80;58.17;101159.72;5084132;28;20012;-85
2023/07/16 09:42:57;;;;;;;8.33;3.80;;;;;;;21.72;58.86;101171.59;5082327;28;20035;-86
2023/07/16 09:45:22;;;;;;;7.13;3.75;;;;;;;21.62;58.09;101165.13;5087603;28;20024;-85
2023/07/16 09:47:50;;;;;;;6.17;3.30;;;;;;;21.74;60.20;101159.13;5094053;28;20053;-84
2023/07/16 09:50:15;;;;;;;7.18;3.33;;;;;;;21.79;57.74;101177.34;5093450;28;20027;-87
2023/07/16 09:52:45;;;;;;;9.93;4.13;;;;;;;21.82;58.23;101181.63;5094160;28;20027;-86
2023/07/16 09:55:11;;;;;;;7.93;3.88;;;;;;;21.68;56.56;101177.13;5092864;28;20088;-85
2023/07/16 09:57:41;;;;;;;7.63;3.60;;;;;;;21.62;58.81;101186.25;5093559;28;20103;-86
2023/07/16 10:00:12;;;;;;;7.20;3.50;;;;;;;21.58;59.38;101189.97;5093519;28;20031;-87
2023/07/16 10:02:38;;;;;;;8.65;3.80;;;;;;;21.52;58.92;101182.38;5092848;28;20036;-86
2023/07/16 10:05:17;;;;;;;7.05;3.55;;;;;;;21.47;59.68;101193.22;5093497;28;20368;-88
2023/07/16 10:07:49;;;;;;;8.95;3.50;;;;;;;21.63;58.73;101198.50;5093700;28;20415;-88
2023/07/16 10:10:17;;;;;;;6.57;3.63;;;;;;;21.79;58.03;101192.38;5093011;28;20020;-86
2023/07/16 10:12:43;;;;;;;5.40;3.38;;;;;;;21.85;59.44;101200.81;5093398;28;20024;-85
2023/07/16 10:15:12;;;;;;;4.93;3.28;;;;;;;22.05;60.77;101197.00;5093604;28;20107;-85
2023/07/16 10:17:37;;;;;;;6.15;3.33;;;;;;;22.44;57.86;101205.34;5092618;28;20044;-85
2023/07/16 10:20:08;;;;;;;4.97;2.93;;;;;;;22.67;55.78;101205.75;5093433;28;20435;-86
2023/07/16 10:22:46;;;;;;;7.68;3.83;;;;;;;22.73;56.79;101209.84;5093201;28;20432;-86
2023/07/16 10:25:18;;;;;;;7.30;3.70;;;;;;;22.70;55.52;101213.50;5092830;28;20414;-86
2023/07/16 10:27:48;;;;;;;6.38;3.50;;;;;;;22.60;56.69;101221.16;5093315;28;20130;-87
2023/07/16 10:30:13;;;;;;;5.15;3.10;;;;;;;22.65;57.38;101213.78;5092638;28;20099;-85
2023/07/16 10:32:39;;;;;;;6.30;3.30;;;;;;;22.66;53.84;101218.13;5093067;28;20481;-86
2023/07/16 10:35:06;;;;;;;6.13;3.20;;;;;;;22.61;56.63;101220.22;5093500;28;20052;-84
2023/07/16 10:37:32;;;;;;;6.68;3.30;;;;;;;22.67;56.86;101227.75;5093031;28;20044;-87
2023/07/16 10:39:59;;;;;;;6.00;3.33;;;;;;;22.75;55.37;101221.16;5093219;28;20117;-89
2023/07/16 10:42:26;;;;;;;6.00;3.42;;;;;;;22.77;54.48;101212.19;5092914;28;20024;-90
2023/07/16 10:44:53;;;;;;;6.75;3.50;;;;;;;22.81;55.09;101218.13;5091781;28;20034;-86
2023/07/16 10:47:52;;;;;;;6.93;3.78;;;;;;;22.71;56.19;101222.28;5087283;28;20026;-88
2023/07/16 10:50:19;;;;;;;4.78;3.30;;;;;;;22.72;56.71;101224.84;5091278;28;20031;-88
2023/07/16 10:52:44;;;;;;;8.00;3.63;;;;;;;22.73;55.26;101209.84;5090345;28;20028;-85
2023/07/16 10:55:09;;;;;;;6.70;3.63;;;;;;;22.62;54.46;101224.56;5092935;28;20383;-87
2023/07/16 10:57:35;;;;;;;6.23;3.13;;;;;;;22.59;55.74;101230.03;5091374;28;20103;-87
2023/07/16 11:00:00;;;;;;;5.33;3.10;;;;;;;22.55;56.16;101232.94;5089981;28;20069;-87
2023/07/16 11:02:26;;;;;;;4.43;2.73;;;;;;;22.59;56.23;101237.97;5092587;28;20038;-87
2023/07/16 11:04:57;;;;;;;5.18;3.00;;;;;;;22.56;54.02;101243.44;5091879;28;20028;-84
2023/07/16 11:07:23;;;;;;;7.10;3.38;;;;;;;22.49;56.04;101248.22;5088302;28;20024;-86
2023/07/16 11:09:54;;;;;;;4.63;2.80;;;;;;;22.50;55.29;101249.94;5090959;28;20035;-87
2023/07/16 11:12:22;;;;;;;5.38;3.10;;;;;;;22.42;54.79;101251.31;5092072;28;20427;-85
2023/07/16 11:14:50;;;;;;;6.65;3.00;;;;;;;22.37;55.61;101260.38;5092526;28;20023;-87
2023/07/16 11:17:15;;;;;;;6.07;3.22;;;;;;;22.35;56.79;101253.44;5079063;28;20388;-86
2023/07/16 11:19:45;;;;;;;4.90;2.80;;;;;;;22.32;55.44;101257.13;5090948;28;20028;-86
2023/07/16 11:22:26;;;;;;;4.18;2.78;;;;;;;22.30;55.74;101260.81;5089856;28;20028;-86